Time;durP1;ratioP1;P1;durP2;ratioP2;P2;SDS_P1;SDS_P2;PMS_P1;PMS_P2;Temp;Humidity;BMP_temperature;BMP_pressure;BME280_temperature;BME280_humidity;BME280_pressure;Samples;Min_cycle;Max_cycle;Signal;HPM_P1;HPM_P2
2021/09/04 00:00:07;;;;;;;44.17;23.87;;;16.20;99.90;;;;;;5082864;28;20180;-65
2021/09/04 00:02:35;;;;;;;40.60;22.83;;;16.20;99.90;;;;;;5084420;28;20328;-64
2021/09/04 00:05:06;;;;;;;43.23;22.17;;;16.20;99.90;;;;;;5086545;28;20200;-64
2021/09/04 00:07:36;;;;;;;42.57;22.87;;;16.20;99.90;;;;;;5087905;28;20199;-64
2021/09/04 00:10:05;;;;;;;41.43;23.03;;;16.20;99.90;;;;;;5085008;28;20196;-64
2021/09/04 00:12:33;;;;;;;39.33;22.10;;;16.20;99.90;;;;;;5087332;28;20349;-65
2021/09/04 00:15:02;;;;;;;41.13;22.53;;;16.10;99.90;;;;;;5085015;28;20227;-64
2021/09/04 00:17:31;;;;;;;41.97;21.93;;;16.10;99.90;;;;;;5087900;28;20304;-64
2021/09/04 00:20:01;;;;;;;37.43;22.27;;;16.10;99.90;;;;;;5068691;28;20179;-64
2021/09/04 00:22:31;;;;;;;43.40;24.67;;;16.10;99.90;;;;;;5083168;28;20172;-64
2021/09/04 00:25:00;;;;;;;51.77;24.87;;;16.10;99.90;;;;;;5083627;28;20184;-64
2021/09/04 00:27:28;;;;;;;43.83;23.23;;;16.10;99.90;;;;;;5085341;28;20396;-64
2021/09/04 00:29:57;;;;;;;38.87;22.60;;;16.10;99.90;;;;;;5084850;28;20365;-64
2021/09/04 00:32:25;;;;;;;46.90;23.90;;;16.10;99.90;;;;;;5085808;28;20196;-65
2021/09/04 00:34:53;;;;;;;43.80;22.63;;;16.10;99.90;;;;;;5084713;28;20173;-64
2021/09/04 00:37:22;;;;;;;38.87;22.90;;;16.10;99.90;;;;;;5086361;28;20192;-64
2021/09/04 00:39:51;;;;;;;42.03;22.13;;;16.10;99.90;;;;;;5084786;28;20230;-64
2021/09/04 00:42:20;;;;;;;35.40;21.10;;;16.00;99.90;;;;;;5087852;28;20175;-64
2021/09/04 00:44:49;;;;;;;40.77;23.10;;;16.00;99.90;;;;;;5083154;28;20172;-64
2021/09/04 00:47:17;;;;;;;42.33;22.27;;;15.90;99.90;;;;;;5083409;28;20185;-64
2021/09/04 00:49:46;;;;;;;42.07;22.87;;;15.90;99.90;;;;;;5087631;28;20180;-64
2021/09/04 00:52:15;;;;;;;36.77;21.67;;;15.90;99.90;;;;;;5083182;28;20357;-65
2021/09/04 00:54:44;;;;;;;41.87;21.77;;;15.80;99.90;;;;;;5070494;28;20204;-64
2021/09/04 00:57:14;;;;;;;39.87;21.90;;;15.80;99.90;;;;;;5084617;28;20187;-65
2021/09/04 00:59:42;;;;;;;43.60;22.67;;;15.70;99.90;;;;;;5052983;28;20180;-64
2021/09/04 01:02:17;;;;;;;39.80;22.50;;;15.70;99.90;;;;;;5063116;28;20212;-64
2021/09/04 01:04:46;;;;;;;40.83;21.70;;;15.70;99.90;;;;;;5063225;28;20226;-64
2021/09/04 01:07:14;;;;;;;41.40;22.60;;;15.70;99.90;;;;;;5083863;28;20183;-64
2021/09/04 01:09:43;;;;;;;44.03;23.40;;;15.70;99.90;;;;;;5082760;28;20172;-64
2021/09/04 01:12:13;;;;;;;38.33;21.80;;;15.60;99.90;;;;;;5087003;28;20188;-64
2021/09/04 01:14:43;;;;;;;38.63;23.23;;;15.60;99.90;;;;;;5067054;28;20218;-65
2021/09/04 01:17:11;;;;;;;41.40;22.33;;;15.60;99.90;;;;;;5069630;28;20182;-64
2021/09/04 01:19:40;;;;;;;39.70;22.73;;;15.60;99.90;;;;;;5071068;28;20180;-64
2021/09/04 01:22:10;;;;;;;41.67;22.27;;;15.60;99.90;;;;;;5082803;28;20188;-64
2021/09/04 01:24:39;;;;;;;42.53;22.83;;;15.60;99.90;;;;;;5071535;28;20363;-64
2021/09/04 01:27:09;;;;;;;40.70;23.00;;;15.60;99.90;;;;;;5087316;28;20268;-64
2021/09/04 01:29:37;;;;;;;47.83;23.63;;;15.60;99.90;;;;;;5063025;28;20203;-65
2021/09/04 01:32:06;;;;;;;49.40;23.83;;;15.60;99.90;;;;;;5086823;28;20461;-64
2021/09/04 01:34:34;;;;;;;47.10;24.53;;;15.60;99.90;;;;;;5081132;28;20208;-64
2021/09/04 01:37:03;;;;;;;40.67;22.57;;;15.60;99.90;;;;;;5086498;28;20375;-64
2021/09/04 01:39:31;;;;;;;41.50;22.57;;;15.60;99.90;;;;;;5083609;28;20180;-65
2021/09/04 01:42:00;;;;;;;42.70;21.73;;;15.50;99.90;;;;;;5087410;28;20325;-64
2021/09/04 01:44:30;;;;;;;39.07;22.00;;;15.50;99.90;;;;;;5083734;28;20180;-64
2021/09/04 01:46:58;;;;;;;39.50;22.00;;;15.40;99.90;;;;;;5086342;28;20176;-64
2021/09/04 01:49:26;;;;;;;39.20;21.70;;;15.30;99.90;;;;;;5088103;28;20199;-64
2021/09/04 01:51:55;;;;;;;42.37;22.03;;;15.20;99.90;;;;;;5066555;28;20188;-64
2021/09/04 01:54:23;;;;;;;42.40;21.23;;;15.20;99.90;;;;;;5083792;28;20204;-64
2021/09/04 01:56:51;;;;;;;41.30;22.40;;;15.20;99.90;;;;;;5086748;28;20176;-64
2021/09/04 01:59:20;;;;;;;43.80;22.63;;;15.10;99.90;;;;;;5086482;28;20176;-65
2021/09/04 02:01:49;;;;;;;42.40;23.40;;;15.10;99.90;;;;;;5084038;28;20220;-65
2021/09/04 02:04:18;;;;;;;41.57;23.00;;;15.10;99.90;;;;;;5081830;28;20406;-64
2021/09/04 02:06:46;;;;;;;43.03;23.47;;;15.10;99.90;;;;;;5084698;28;20176;-64
2021/09/04 02:09:15;;;;;;;46.87;22.40;;;15.00;99.90;;;;;;5085052;28;20199;-64
2021/09/04 02:11:43;;;;;;;41.73;22.97;;;15.00;99.90;;;;;;5083114;28;20275;-65
2021/09/04 02:14:11;;;;;;;45.37;24.10;;;15.00;99.90;;;;;;5076080;28;20201;-64
2021/09/04 02:16:41;;;;;;;47.30;23.50;;;15.00;99.90;;;;;;5083145;28;20218;-64
2021/09/04 02:19:11;;;;;;;42.70;22.90;;;15.00;99.90;;;;;;5082297;28;20184;-64
2021/09/04 02:21:40;;;;;;;41.60;23.30;;;15.00;99.90;;;;;;5068050;28;20403;-64
2021/09/04 02:24:08;;;;;;;44.97;23.40;;;15.00;99.90;;;;;;5087789;28;20267;-64
2021/09/04 02:26:37;;;;;;;45.47;24.03;;;15.10;99.90;;;;;;5082707;28;20180;-64
2021/09/04 02:29:06;;;;;;;44.23;24.93;;;15.00;99.90;;;;;;5082296;28;20191;-64
2021/09/04 02:31:34;;;;;;;47.53;23.23;;;15.00;99.90;;;;;;5082313;28;20287;-64
2021/09/04 02:34:03;;;;;;;45.50;23.47;;;15.00;99.90;;;;;;5085150;28;20297;-64
2021/09/04 02:36:32;;;;;;;58.17;25.20;;;15.00;99.90;;;;;;5061253;28;20177;-64
2021/09/04 02:39:01;;;;;;;46.80;24.67;;;15.00;99.90;;;;;;5081927;28;20179;-64
2021/09/04 02:41:29;;;;;;;49.27;24.53;;;15.00;99.90;;;;;;5086502;28;20179;-64
2021/09/04 02:43:57;;;;;;;48.87;24.33;;;15.00;99.90;;;;;;5063661;28;20195;-64
2021/09/04 02:46:26;;;;;;;49.00;24.57;;;15.00;99.90;;;;;;5063275;28;20207;-64
2021/09/04 02:48:54;;;;;;;44.93;23.50;;;15.00;99.90;;;;;;5070004;28;20211;-64
2021/09/04 02:51:23;;;;;;;46.07;24.87;;;14.90;99.90;;;;;;5063608;28;20180;-64
2021/09/04 02:53:53;;;;;;;51.70;25.40;;;14.90;99.90;;;;;;5087306;28;20295;-64
2021/09/04 02:56:21;;;;;;;47.30;23.93;;;14.90;99.90;;;;;;5083104;28;20299;-64
2021/09/04 02:58:50;;;;;;;46.00;24.63;;;14.90;99.90;;;;;;5084002;28;20191;-65
2021/09/04 03:01:18;;;;;;;45.40;23.47;;;14.90;99.90;;;;;;5083246;28;20219;-65
2021/09/04 03:03:47;;;;;;;44.53;24.57;;;14.90;99.90;;;;;;5079303;28;20386;-64
2021/09/04 03:06:15;;;;;;;50.37;24.70;;;14.80;99.90;;;;;;5086810;28;20310;-64
2021/09/04 03:08:44;;;;;;;44.83;23.37;;;14.80;99.90;;;;;;5085493;28;20190;-64
2021/09/04 03:11:13;;;;;;;42.23;23.83;;;14.70;99.90;;;;;;5063857;28;20176;-64
2021/09/04 03:13:41;;;;;;;46.50;24.23;;;14.70;99.90;;;;;;5080429;28;20196;-64
2021/09/04 03:16:10;;;;;;;43.37;23.67;;;14.70;99.90;;;;;;5062190;28;20329;-64
2021/09/04 03:18:38;;;;;;;44.47;24.03;;;14.70;99.90;;;;;;5083360;28;20284;-64
2021/09/04 03:21:07;;;;;;;43.60;24.10;;;14.70;99.90;;;;;;5081663;28;20204;-63
2021/09/04 03:23:35;;;;;;;48.90;25.27;;;14.60;99.90;;;;;;5082491;28;20191;-64
2021/09/04 03:26:04;;;;;;;46.43;24.63;;;14.60;99.90;;;;;;5084490;28;20182;-64
2021/09/04 03:28:34;;;;;;;42.60;23.03;;;14.50;99.90;;;;;;5080998;28;20390;-64
2021/09/04 03:31:03;;;;;;;47.43;22.60;;;14.50;99.90;;;;;;5082103;28;20184;-64
2021/09/04 03:33:31;;;;;;;42.60;23.53;;;14.50;99.90;;;;;;5076652;28;20180;-64
2021/09/04 03:35:59;;;;;;;48.00;24.77;;;14.40;99.90;;;;;;5081887;28;20219;-64
2021/09/04 03:38:28;;;;;;;46.63;23.43;;;14.40;99.90;;;;;;5082333;28;20196;-63
2021/09/04 03:40:56;;;;;;;44.63;23.80;;;14.40;99.90;;;;;;5085790;28;20219;-64
2021/09/04 03:43:24;;;;;;;43.53;23.67;;;14.30;99.90;;;;;;5063587;28;20191;-63
2021/09/04 03:45:54;;;;;;;47.27;24.90;;;14.30;99.90;;;;;;5087012;28;20172;-64
2021/09/04 03:48:23;;;;;;;49.27;25.23;;;14.30;99.90;;;;;;5061618;28;20180;-64
2021/09/04 03:50:51;;;;;;;46.17;24.03;;;14.30;99.90;;;;;;5082825;28;20211;-64
2021/09/04 03:53:19;;;;;;;49.03;25.53;;;14.30;99.90;;;;;;5079953;28;20196;-64
2021/09/04 03:55:47;;;;;;;48.23;24.33;;;14.20;99.90;;;;;;5086907;28;20219;-64
2021/09/04 03:58:15;;;;;;;51.17;25.57;;;14.20;99.90;;;;;;5064802;28;20196;-64
2021/09/04 04:00:44;;;;;;;51.30;25.37;;;14.20;99.90;;;;;;5084809;28;20219;-64
2021/09/04 04:03:14;;;;;;;51.17;25.93;;;14.20;99.90;;;;;;5082105;28;20276;-64
2021/09/04 04:05:43;;;;;;;51.20;26.13;;;14.30;99.90;;;;;;5087240;28;20188;-64
2021/09/04 04:08:11;;;;;;;52.33;26.43;;;14.20;99.90;;;;;;5084144;28;20210;-64
2021/09/04 04:10:40;;;;;;;55.40;25.20;;;14.20;99.90;;;;;;5082143;28;20191;-64
2021/09/04 04:13:09;;;;;;;55.20;26.73;;;14.20;99.90;;;;;;5052136;28;20179;-64
2021/09/04 04:15:37;;;;;;;55.03;26.00;;;14.20;99.90;;;;;;5078476;28;20204;-64
2021/09/04 04:18:06;;;;;;;54.23;26.70;;;14.20;99.90;;;;;;5079565;28;20180;-64
2021/09/04 04:20:36;;;;;;;47.30;24.73;;;14.20;99.90;;;;;;5061528;28;20392;-64
2021/09/04 04:23:04;;;;;;;54.10;26.07;;;14.10;99.90;;;;;;5080876;28;20242;-64
2021/09/04 04:25:32;;;;;;;47.20;25.33;;;14.10;99.90;;;;;;5082641;28;20318;-63
2021/09/04 04:28:01;;;;;;;52.23;26.07;;;14.10;99.90;;;;;;5080256;28;20195;-64
2021/09/04 04:30:30;;;;;;;53.23;25.70;;;14.10;99.90;;;;;;5081530;28;20479;-64
2021/09/04 04:32:58;;;;;;;54.17;26.27;;;14.00;99.90;;;;;;5084752;28;20176;-63
2021/09/04 04:35:27;;;;;;;48.40;24.47;;;14.00;99.90;;;;;;5065140;28;20238;-64
2021/09/04 04:37:56;;;;;;;53.73;26.07;;;14.00;99.90;;;;;;5079969;28;20188;-64
2021/09/04 04:40:25;;;;;;;48.63;26.10;;;14.00;99.90;;;;;;5082624;28;20184;-63
2021/09/04 04:42:53;;;;;;;54.97;26.13;;;13.90;99.90;;;;;;5088934;28;20184;-64
2021/09/04 04:45:22;;;;;;;64.47;29.20;;;13.90;99.90;;;;;;5083307;28;20195;-64
2021/09/04 04:47:50;;;;;;;61.87;28.10;;;13.90;99.90;;;;;;5083998;28;20183;-64
2021/09/04 04:50:19;;;;;;;63.03;28.23;;;13.90;99.90;;;;;;5086415;28;20175;-63
2021/09/04 04:52:49;;;;;;;61.97;28.07;;;13.90;99.90;;;;;;5086816;28;20198;-64
2021/09/04 04:55:19;;;;;;;57.50;27.70;;;14.00;99.90;;;;;;5084426;28;20198;-64
2021/09/04 04:57:47;;;;;;;59.70;28.60;;;14.00;99.90;;;;;;5084454;28;20196;-63
2021/09/04 05:00:16;;;;;;;58.67;27.67;;;14.00;99.90;;;;;;5068623;28;20172;-64
2021/09/04 05:02:45;;;;;;;58.67;27.73;;;14.00;99.90;;;;;;5084186;28;20206;-64
2021/09/04 05:05:14;;;;;;;56.23;28.17;;;14.00;99.90;;;;;;5084851;28;20189;-64
2021/09/04 05:07:44;;;;;;;61.27;30.20;;;14.00;99.90;;;;;;5081842;28;20423;-63
2021/09/04 05:10:12;;;;;;;57.13;28.93;;;14.00;99.90;;;;;;5088212;28;20188;-64
2021/09/04 05:12:43;;;;;;;65.47;30.17;;;14.00;99.90;;;;;;5084980;28;20191;-64
2021/09/04 05:15:11;;;;;;;62.97;30.40;;;14.00;99.90;;;;;;5067656;28;20196;-63
2021/09/04 05:17:40;;;;;;;59.67;29.83;;;14.00;99.90;;;;;;5085264;28;20237;-64
2021/09/04 05:20:10;;;;;;;64.87;30.83;;;14.00;99.90;;;;;;5085710;28;20270;-63
2021/09/04 05:22:40;;;;;;;61.33;29.53;;;14.10;99.90;;;;;;5084288;28;20214;-64
2021/09/04 05:25:08;;;;;;;63.93;30.50;;;14.10;99.90;;;;;;5086894;28;20268;-64
2021/09/04 05:27:37;;;;;;;62.17;29.40;;;14.10;99.90;;;;;;5085687;28;20179;-63
2021/09/04 05:30:07;;;;;;;65.00;29.03;;;14.20;99.90;;;;;;5085954;28;20176;-64
2021/09/04 05:32:35;;;;;;;64.77;29.37;;;14.20;99.90;;;;;;5066073;28;20179;-64
2021/09/04 05:35:05;;;;;;;66.33;30.53;;;14.20;99.90;;;;;;5087803;28;20187;-64
2021/09/04 05:37:34;;;;;;;67.57;30.60;;;14.30;99.90;;;;;;5082169;28;20184;-64
2021/09/04 05:40:02;;;;;;;62.97;30.70;;;14.30;99.90;;;;;;5058662;28;20180;-64
2021/09/04 05:42:31;;;;;;;65.27;31.50;;;14.40;99.90;;;;;;5085806;28;20180;-64
2021/09/04 05:44:59;;;;;;;63.23;30.13;;;14.40;99.90;;;;;;5092622;28;20176;-64
2021/09/04 05:47:29;;;;;;;60.27;30.67;;;14.40;99.90;;;;;;5085264;28;20247;-64
2021/09/04 05:49:58;;;;;;;72.87;33.03;;;14.50;99.90;;;;;;5085926;28;20261;-63
2021/09/04 05:52:26;;;;;;;65.73;32.83;;;14.50;99.90;;;;;;5080491;28;20180;-63
2021/09/04 05:54:54;;;;;;;64.83;31.57;;;14.50;99.90;;;;;;5049419;28;20168;-63
2021/09/04 05:57:23;;;;;;;75.63;33.77;;;14.50;99.90;;;;;;5083561;28;20505;-63
2021/09/04 05:59:51;;;;;;;80.97;34.27;;;14.50;99.90;;;;;;5086725;28;20458;-63
2021/09/04 06:02:19;;;;;;;85.63;36.87;;;14.60;99.90;;;;;;5087280;28;20456;-64
2021/09/04 06:04:49;;;;;;;87.30;36.87;;;14.60;99.90;;;;;;5091076;28;20404;-63
2021/09/04 06:07:17;;;;;;;82.73;35.17;;;14.50;99.90;;;;;;5064948;28;20184;-64
2021/09/04 06:09:46;;;;;;;82.43;36.27;;;14.50;99.90;;;;;;5086954;28;20180;-64
2021/09/04 06:12:14;;;;;;;88.27;35.83;;;14.60;99.90;;;;;;5063900;28;20222;-63
2021/09/04 06:14:45;;;;;;;85.77;37.00;;;14.60;99.90;;;;;;5083121;28;20268;-64
2021/09/04 06:17:13;;;;;;;84.83;35.73;;;14.60;99.90;;;;;;5082026;28;20203;-63
2021/09/04 06:19:42;;;;;;;90.53;37.97;;;14.60;99.90;;;;;;5083705;28;20176;-64
2021/09/04 06:22:11;;;;;;;88.20;37.30;;;14.60;99.90;;;;;;5061525;28;20364;-64
2021/09/04 06:24:40;;;;;;;85.83;37.63;;;14.60;99.90;;;;;;5083207;28;20285;-64
2021/09/04 06:27:08;;;;;;;102.20;39.80;;;14.70;99.90;;;;;;5085426;28;20188;-64
2021/09/04 06:29:37;;;;;;;94.57;37.73;;;14.70;99.90;;;;;;5085223;28;20194;-64
2021/09/04 06:32:06;;;;;;;90.40;38.30;;;14.70;99.90;;;;;;5065977;28;20172;-64
2021/09/04 06:34:34;;;;;;;98.27;38.77;;;14.70;99.90;;;;;;5065962;28;20397;-64
2021/09/04 06:37:03;;;;;;;92.30;38.80;;;14.70;99.90;;;;;;5081431;28;20203;-64
2021/09/04 06:39:33;;;;;;;95.10;40.87;;;14.80;99.90;;;;;;5064380;28;20187;-64
2021/09/04 06:42:01;;;;;;;96.10;40.00;;;14.80;99.90;;;;;;5080714;28;20282;-65
2021/09/04 06:44:29;;;;;;;89.70;38.70;;;14.80;99.90;;;;;;5082011;28;20203;-64
2021/09/04 06:46:58;;;;;;;95.20;40.07;;;14.80;99.90;;;;;;5066283;28;20203;-64
2021/09/04 06:49:26;;;;;;;96.00;41.37;;;14.90;99.90;;;;;;5081186;28;20200;-64
2021/09/04 06:51:56;;;;;;;95.47;41.03;;;14.90;99.90;;;;;;5080152;28;20196;-64
2021/09/04 06:54:25;;;;;;;98.30;41.10;;;14.90;99.90;;;;;;5085582;28;20304;-64
2021/09/04 06:56:55;;;;;;;104.77;41.60;;;14.80;99.90;;;;;;5088176;28;20201;-64
2021/09/04 06:59:23;;;;;;;99.10;41.33;;;14.90;99.90;;;;;;5082295;28;20192;-64
2021/09/04 07:01:52;;;;;;;103.37;41.87;;;14.80;99.90;;;;;;5048985;28;20216;-64
2021/09/04 07:04:20;;;;;;;100.80;42.03;;;14.90;99.90;;;;;;5059484;28;20415;-64
2021/09/04 07:06:49;;;;;;;95.47;40.97;;;14.90;99.90;;;;;;5060619;28;20197;-64
2021/09/04 07:09:17;;;;;;;96.37;40.47;;;14.90;99.90;;;;;;5056762;28;20180;-64
2021/09/04 07:11:45;;;;;;;105.83;41.10;;;15.00;99.90;;;;;;5056915;28;20179;-64
2021/09/04 07:14:15;;;;;;;102.97;42.33;;;15.00;99.90;;;;;;5066101;28;20184;-64
2021/09/04 07:16:43;;;;;;;95.43;40.97;;;15.00;99.90;;;;;;5059543;28;20231;-64
2021/09/04 07:19:13;;;;;;;90.80;40.13;;;15.10;99.90;;;;;;5058720;28;20296;-64
2021/09/04 07:21:41;;;;;;;93.20;39.73;;;15.10;99.90;;;;;;5056923;28;20204;-64
2021/09/04 07:24:10;;;;;;;97.53;41.33;;;15.20;99.90;;;;;;5063648;28;20208;-64
2021/09/04 07:26:38;;;;;;;95.37;41.30;;;15.10;99.90;;;;;;5064404;28;20605;-64
2021/09/04 07:29:07;;;;;;;95.10;41.73;;;15.10;99.90;;;;;;5058544;28;20311;-64
2021/09/04 07:31:41;;;;;;;93.87;41.07;;;15.10;99.90;;;;;;5063596;28;20226;-63
2021/09/04 07:34:10;;;;;;;100.40;41.93;;;15.10;99.90;;;;;;5062749;28;20431;-65
2021/09/04 07:36:38;;;;;;;96.17;43.13;;;15.20;99.90;;;;;;5058094;28;20204;-64
2021/09/04 07:39:07;;;;;;;95.97;41.43;;;15.10;99.90;;;;;;5059009;28;20193;-64
2021/09/04 07:41:35;;;;;;;96.83;41.20;;;15.20;99.90;;;;;;5067981;28;20188;-64
2021/09/04 07:44:04;;;;;;;94.63;42.33;;;15.20;99.90;;;;;;5066885;28;20184;-64
2021/09/04 07:46:32;;;;;;;95.43;42.57;;;15.20;99.90;;;;;;5070280;28;20188;-64
2021/09/04 07:49:02;;;;;;;95.93;41.83;;;15.20;99.90;;;;;;5072011;28;20260;-64
2021/09/04 07:51:31;;;;;;;83.93;40.07;;;15.20;99.90;;;;;;5063559;28;20196;-64
2021/09/04 07:53:59;;;;;;;93.57;42.23;;;15.20;99.90;;;;;;5080352;28;20257;-64
2021/09/04 07:56:28;;;;;;;103.57;44.30;;;15.30;99.90;;;;;;5069598;28;20180;-64
2021/09/04 07:58:56;;;;;;;102.10;43.43;;;15.20;99.90;;;;;;5070104;28;20192;-64
2021/09/04 08:01:25;;;;;;;104.37;45.37;;;15.10;99.90;;;;;;5077652;28;20430;-64
2021/09/04 08:03:54;;;;;;;107.87;45.70;;;15.10;99.90;;;;;;5095178;28;20180;-64
2021/09/04 08:06:23;;;;;;;98.70;43.20;;;15.10;99.90;;;;;;5100446;28;20183;-64
2021/09/04 08:08:52;;;;;;;102.73;43.67;;;15.20;99.90;;;;;;5087320;28;20427;-64
2021/09/04 08:11:20;;;;;;;91.63;40.57;;;15.20;99.90;;;;;;5080469;28;20188;-64
2021/09/04 08:13:49;;;;;;;98.87;43.47;;;15.20;99.90;;;;;;5091577;28;20386;-63
2021/09/04 08:16:17;;;;;;;89.03;41.87;;;15.30;99.90;;;;;;5092304;28;20176;-64
2021/09/04 08:18:45;;;;;;;100.17;43.13;;;15.30;99.90;;;;;;5085860;28;20188;-64
2021/09/04 08:21:14;;;;;;;103.63;43.53;;;15.40;99.90;;;;;;5090204;28;20269;-64
2021/09/04 08:23:43;;;;;;;94.60;43.57;;;15.40;99.90;;;;;;5089692;28;20191;-64
2021/09/04 08:26:12;;;;;;;99.27;44.20;;;15.40;99.90;;;;;;5087455;28;20176;-64
2021/09/04 08:28:40;;;;;;;102.43;43.97;;;15.50;99.90;;;;;;5089223;28;20176;-64
2021/09/04 08:31:09;;;;;;;101.40;43.97;;;15.50;99.90;;;;;;5088441;28;20395;-64
2021/09/04 08:33:37;;;;;;;98.13;44.23;;;15.60;99.90;;;;;;5086057;28;20412;-64
2021/09/04 08:36:06;;;;;;;103.23;45.73;;;15.60;99.90;;;;;;5090239;28;20332;-64
2021/09/04 08:38:34;;;;;;;102.53;44.57;;;15.60;99.90;;;;;;5083471;28;20253;-64
2021/09/04 08:41:05;;;;;;;97.90;43.53;;;15.70;99.90;;;;;;5085388;28;20178;-64
2021/09/04 08:43:36;;;;;;;96.70;43.03;;;15.70;99.90;;;;;;5067732;28;20251;-64
2021/09/04 08:46:05;;;;;;;95.23;43.60;;;15.70;99.90;;;;;;5087739;28;20184;-64
2021/09/04 08:48:33;;;;;;;90.73;41.37;;;15.70;99.90;;;;;;5084577;28;20357;-64
2021/09/04 08:51:02;;;;;;;92.30;41.53;;;15.80;99.90;;;;;;5085573;28;20369;-64
2021/09/04 08:53:30;;;;;;;89.67;42.10;;;15.80;99.90;;;;;;5086798;28;20184;-64
2021/09/04 08:55:59;;;;;;;91.60;43.40;;;15.80;99.90;;;;;;5085353;28;20180;-64
2021/09/04 08:58:29;;;;;;;98.03;44.73;;;15.90;99.90;;;;;;5087771;28;20200;-64
2021/09/04 09:00:57;;;;;;;98.23;43.90;;;15.90;99.90;;;;;;5084277;28;20226;-63
2021/09/04 09:03:28;;;;;;;93.80;43.03;;;15.80;99.90;;;;;;5086655;28;20199;-64
2021/09/04 09:05:59;;;;;;;85.87;41.37;;;15.70;99.90;;;;;;5084691;28;20417;-64
2021/09/04 09:08:30;;;;;;;90.93;41.17;;;15.80;99.90;;;;;;5085041;28;20183;-64
2021/09/04 09:11:00;;;;;;;84.00;41.40;;;15.90;99.90;;;;;;5068572;28;20180;-64
2021/09/04 09:13:30;;;;;;;83.57;40.53;;;15.90;99.90;;;;;;5067192;28;20192;-64
2021/09/04 09:15:58;;;;;;;86.07;39.43;;;16.00;99.90;;;;;;5088224;28;20373;-64
2021/09/04 09:18:29;;;;;;;92.27;41.43;;;16.00;99.90;;;;;;5083554;28;20214;-64
2021/09/04 09:21:00;;;;;;;88.57;39.20;;;16.10;99.90;;;;;;5079671;28;20184;-64
2021/09/04 09:23:31;;;;;;;85.07;40.57;;;16.00;99.90;;;;;;5085600;28;20275;-64
2021/09/04 09:26:07;;;;;;;96.63;41.43;;;16.00;99.90;;;;;;5088349;28;20191;-64
2021/09/04 09:28:38;;;;;;;90.13;39.53;;;16.00;99.90;;;;;;5083018;28;20186;-64
2021/09/04 09:31:06;;;;;;;88.37;40.23;;;16.00;99.90;;;;;;5070316;28;20221;-64
2021/09/04 09:33:35;;;;;;;94.87;41.00;;;16.10;99.90;;;;;;5085268;28;20252;-64
2021/09/04 09:36:04;;;;;;;89.90;40.50;;;16.10;99.90;;;;;;5089602;28;20188;-64
2021/09/04 09:38:34;;;;;;;87.10;40.67;;;16.10;99.90;;;;;;5080976;28;20241;-63
2021/09/04 09:41:03;;;;;;;94.83;40.77;;;16.10;99.90;;;;;;5081836;28;20341;-64
2021/09/04 09:43:35;;;;;;;90.03;40.13;;;16.10;99.90;;;;;;5081501;28;20188;-64
2021/09/04 09:46:07;;;;;;;89.10;38.70;;;16.20;99.90;;;;;;5069359;28;20419;-64
2021/09/04 09:48:38;;;;;;;93.33;40.20;;;16.20;99.90;;;;;;5083090;28;20189;-64
2021/09/04 09:51:09;;;;;;;94.03;41.73;;;16.20;99.90;;;;;;5072588;28;20218;-64
2021/09/04 09:53:38;;;;;;;87.50;40.13;;;16.30;99.90;;;;;;5069082;28;20176;-64
2021/09/04 09:56:07;;;;;;;94.07;39.70;;;16.30;99.90;;;;;;5086515;28;20193;-64
2021/09/04 09:58:37;;;;;;;96.90;41.83;;;16.40;99.90;;;;;;5081494;28;20210;-64
2021/09/04 10:01:08;;;;;;;89.20;39.70;;;16.40;99.90;;;;;;5065034;28;20251;-64
2021/09/04 10:03:39;;;;;;;88.40;39.33;;;16.40;99.90;;;;;;5081373;28;20177;-64
2021/09/04 10:06:09;;;;;;;92.70;40.80;;;16.40;99.90;;;;;;5069492;28;20184;-64
2021/09/04 10:08:37;;;;;;;98.20;41.27;;;16.50;99.90;;;;;;5089054;28;20180;-64
2021/09/04 10:11:07;;;;;;;83.23;39.20;;;16.50;99.90;;;;;;5084493;28;20408;-64
2021/09/04 10:13:36;;;;;;;84.47;38.03;;;16.60;99.90;;;;;;5082182;28;20310;-64
2021/09/04 10:16:06;;;;;;;82.03;37.00;;;16.60;99.90;;;;;;5081575;28;20184;-64
2021/09/04 10:18:35;;;;;;;74.03;35.37;;;16.60;99.90;;;;;;5065751;28;20188;-64
2021/09/04 10:21:08;;;;;;;86.63;38.97;;;16.70;99.90;;;;;;5085789;28;20177;-64
2021/09/04 10:23:41;;;;;;;88.67;37.10;;;16.90;99.90;;;;;;5078334;28;20262;-63
2021/09/04 10:26:31;;;;;;;84.70;37.97;;;17.00;99.90;;;;;;5083364;28;20206;-64
2021/09/04 10:29:06;;;;;;;86.27;39.17;;;17.00;99.90;;;;;;5082937;28;20173;-63
2021/09/04 10:31:56;;;;;;;88.03;39.27;;;17.10;99.90;;;;;;5080655;28;20172;-63
2021/09/04 10:34:29;;;;;;;83.67;37.47;;;17.10;99.90;;;;;;5083832;28;20184;-64
2021/09/04 10:37:08;;;;;;;76.70;35.10;;;17.20;99.90;;;;;;5078672;28;20403;-64
2021/09/04 10:39:48;;;;;;;78.67;35.93;;;17.30;99.90;;;;;;5080988;28;20247;-64
2021/09/04 10:42:18;;;;;;;75.67;36.60;;;17.40;99.90;;;;;;5084259;28;20189;-64
2021/09/04 10:44:48;;;;;;;82.00;37.47;;;17.30;99.90;;;;;;5076847;28;20212;-64
2021/09/04 10:47:19;;;;;;;83.77;37.60;;;17.30;99.90;;;;;;5082973;28;20191;-64
2021/09/04 10:49:52;;;;;;;80.80;37.83;;;17.30;99.90;;;;;;5081615;28;20184;-63
2021/09/04 10:52:56;;;;;;;74.07;34.93;;;17.40;99.90;;;;;;5084617;28;20181;-64
2021/09/04 10:55:26;;;;;;;78.20;35.50;;;17.40;99.90;;;;;;5064953;28;20211;-64
2021/09/04 10:58:03;;;;;;;88.45;38.00;;;17.60;99.90;;;;;;5083880;28;20235;-64
2021/09/04 11:00:38;;;;;;;77.23;35.93;;;17.70;99.90;;;;;;5064261;28;20253;-64
2021/09/04 11:03:11;;;;;;;83.20;36.43;;;17.80;99.90;;;;;;5079886;28;20342;-64
2021/09/04 11:05:45;;;;;;;78.77;35.90;;;18.00;99.90;;;;;;5065922;28;20184;-64
2021/09/04 11:08:36;;;;;;;83.00;35.23;;;18.10;99.90;;;;;;5079638;28;20251;-64
2021/09/04 11:11:15;;;;;;;82.37;36.97;;;18.20;99.90;;;;;;5081400;28;20191;-64
2021/09/04 11:13:50;;;;;;;79.90;36.93;;;18.10;99.90;;;;;;5078964;28;20186;-63
2021/09/04 11:16:44;;;;;;;84.20;37.03;;;18.20;99.90;;;;;;5058543;28;20230;-64
2021/09/04 11:19:16;;;;;;;78.50;35.93;;;18.20;99.90;;;;;;5060209;28;20207;-64
2021/09/04 11:21:56;;;;;;;79.20;36.77;;;18.20;99.90;;;;;;5077603;28;20190;-64
2021/09/04 11:24:30;;;;;;;72.90;34.60;;;18.20;99.90;;;;;;5080312;28;20259;-64
2021/09/04 11:27:02;;;;;;;74.93;34.40;;;18.40;99.90;;;;;;5078898;28;20410;-64
2021/09/04 11:29:37;;;;;;;71.23;34.90;;;18.50;99.90;;;;;;5062879;28;20217;-64
2021/09/04 11:32:07;;;;;;;72.43;35.37;;;18.70;99.90;;;;;;5077934;28;20188;-64
2021/09/04 11:34:49;;;;;;;73.07;33.93;;;18.80;99.90;;;;;;5081499;28;20191;-64
2021/09/04 11:37:24;;;;;;;73.90;34.30;;;18.90;99.90;;;;;;5082625;28;20187;-64
2021/09/04 11:39:55;;;;;;;69.57;34.30;;;19.10;99.90;;;;;;5081181;28;20294;-63
2021/09/04 11:42:26;;;;;;;69.33;33.63;;;19.30;99.90;;;;;;5089076;28;20476;-63
2021/09/04 11:44:56;;;;;;;65.70;32.70;;;19.20;99.90;;;;;;5083728;28;20191;-65
2021/09/04 11:47:25;;;;;;;65.73;33.47;;;19.30;99.90;;;;;;5084910;28;20180;-64
2021/09/04 11:49:57;;;;;;;67.13;33.33;;;19.30;99.90;;;;;;5086618;28;20180;-64
2021/09/04 11:52:29;;;;;;;68.07;33.67;;;19.50;99.90;;;;;;5080508;28;20203;-64
2021/09/04 11:55:06;;;;;;;66.60;34.27;;;19.60;99.90;;;;;;5065264;28;20291;-64
2021/09/04 11:57:36;;;;;;;65.67;33.47;;;19.60;99.90;;;;;;5092944;28;20187;-64
2021/09/04 12:00:08;;;;;;;63.73;32.33;;;19.90;99.90;;;;;;5085485;28;20196;-64
2021/09/04 12:02:41;;;;;;;60.77;32.23;;;20.10;99.90;;;;;;5087053;28;20310;-64
2021/09/04 12:05:12;;;;;;;64.27;32.40;;;20.10;99.90;;;;;;5087762;28;20245;-63
2021/09/04 12:07:45;;;;;;;61.43;32.37;;;20.30;99.90;;;;;;5082346;28;20220;-64
2021/09/04 12:10:16;;;;;;;57.87;31.47;;;20.10;99.90;;;;;;5086369;28;20192;-64
2021/09/04 12:12:46;;;;;;;63.07;33.13;;;20.30;99.90;;;;;;5084984;28;20176;-64
2021/09/04 12:15:15;;;;;;;62.20;33.03;;;20.30;99.90;;;;;;5084049;28;20421;-63
2021/09/04 12:17:51;;;;;;;60.53;32.67;;;20.30;99.90;;;;;;5082360;28;20184;-64
2021/09/04 12:20:29;;;;;;;61.67;32.87;;;20.50;99.90;;;;;;5067164;28;20200;-64
2021/09/04 12:23:01;;;;;;;59.97;33.13;;;20.80;99.90;;;;;;5086463;28;20180;-64
2021/09/04 12:25:33;;;;;;;56.83;31.37;;;21.10;99.90;;;;;;5081118;28;20204;-64
2021/09/04 12:28:04;;;;;;;55.97;32.67;;;21.20;99.90;;;;;;5084096;28;20180;-65
2021/09/04 12:30:35;;;;;;;55.93;31.90;;;21.40;99.90;;;;;;5086176;28;20188;-64
2021/09/04 12:33:10;;;;;;;57.53;32.10;;;21.50;99.90;;;;;;5087818;28;20188;-65
2021/09/04 12:35:58;;;;;;;58.60;32.60;;;21.40;99.90;;;;;;5080656;28;20224;-64
2021/09/04 12:38:29;;;;;;;57.43;31.13;;;21.30;99.90;;;;;;5078730;28;20275;-64